sensor_id;sensor_type;location;lat;lon;timestamp;pressure;altitude;pressure_sealevel;temperature;humidity
74429;BME280;62860;52.134;23.714;2022-08-21T00:03:10;1022.1;;;19.4;75.5
74429;BME280;62860;52.134;23.714;2022-08-21T00:08:28;1022.1;;;19.3;75.6
74429;BME280;62860;52.134;23.714;2022-08-21T00:13:24;1022.1;;;19.3;75.6
74429;BME280;62860;52.134;23.714;2022-08-21T00:17:53;1022.1;;;19.3;75.8
74429;BME280;62860;52.134;23.714;2022-08-21T00:23:22;1022.1;;;19.2;75.9
74429;BME280;62860;52.134;23.714;2022-08-21T00:28:12;1022.1;;;19.2;76.3
74429;BME280;62860;52.134;23.714;2022-08-21T00:33:28;1022.1;;;19.1;76.5
74429;BME280;62860;52.134;23.714;2022-08-21T00:38:06;1022;;;19.1;76.7
74429;BME280;62860;52.134;23.714;2022-08-21T00:43:05;1021.9;;;19;77.1
74429;BME280;62860;52.134;23.714;2022-08-21T00:48:16;1021.9;;;18.9;77.3
74429;BME280;62860;52.134;23.714;2022-08-21T00:53:16;1021.9;;;18.9;77.7
74429;BME280;62860;52.134;23.714;2022-08-21T00:58:13;1021.9;;;18.8;77.8
74429;BME280;62860;52.134;23.714;2022-08-21T01:03:12;1022;;;18.8;78
74429;BME280;62860;52.134;23.714;2022-08-21T01:08:22;1022;;;18.8;78.1
74429;BME280;62860;52.134;23.714;2022-08-21T01:13:28;1021.9;;;18.7;78.4
74429;BME280;62860;52.134;23.714;2022-08-21T01:18:16;1021.9;;;18.7;78.5
74429;BME280;62860;52.134;23.714;2022-08-21T01:23:30;1021.9;;;18.6;78.7
74429;BME280;62860;52.134;23.714;2022-08-21T01:28:28;1021.9;;;18.6;78.8
74429;BME280;62860;52.134;23.714;2022-08-21T01:32:52;1021.9;;;18.6;78.9
74429;BME280;62860;52.134;23.714;2022-08-21T01:37:58;1021.9;;;18.6;79
74429;BME280;62860;52.134;23.714;2022-08-21T01:43:24;1022;;;18.6;79.1
74429;BME280;62860;52.134;23.714;2022-08-21T01:48:34;1022;;;18.6;78.8
74429;BME280;62860;52.134;23.714;2022-08-21T01:53:20;1022;;;18.7;78.5
74429;BME280;62860;52.134;23.714;2022-08-21T01:58:26;1021.9;;;18.8;78.4
74429;BME280;62860;52.134;23.714;2022-08-21T02:03:22;1022;;;18.8;78.3
74429;BME280;62860;52.134;23.714;2022-08-21T02:08:10;1022;;;18.8;78.4
74429;BME280;62860;52.134;23.714;2022-08-21T02:13:08;1021.9;;;18.9;78.4
74429;BME280;62860;52.134;23.714;2022-08-21T02:18:20;1021.9;;;18.9;78.5
74429;BME280;62860;52.134;23.714;2022-08-21T02:23:18;1021.9;;;18.9;78.5
74429;BME280;62860;52.134;23.714;2022-08-21T02:28:12;1021.9;;;18.9;78.4
74429;BME280;62860;52.134;23.714;2022-08-21T02:33:12;1021.9;;;18.9;78.4
74429;BME280;62860;52.134;23.714;2022-08-21T02:38:33;1021.8;;;18.8;78.6
74429;BME280;62860;52.134;23.714;2022-08-21T02:43:12;1021.9;;;18.8;78.7
74429;BME280;62860;52.134;23.714;2022-08-21T02:48:19;1021.9;;;18.9;78.6
74429;BME280;62860;52.134;23.714;2022-08-21T02:53:16;1021.8;;;18.9;78.8
74429;BME280;62860;52.134;23.714;2022-08-21T02:58:34;1021.8;;;18.9;78.8
74429;BME280;62860;52.134;23.714;2022-08-21T03:03:32;1021.8;;;18.9;79
74429;BME280;62860;52.134;23.714;2022-08-21T03:07:52;1021.8;;;18.9;78.9
74429;BME280;62860;52.134;23.714;2022-08-21T03:13:14;1021.8;;;18.9;79.2
74429;BME280;62860;52.134;23.714;2022-08-21T03:18:04;1021.8;;;19;79
74429;BME280;62860;52.134;23.714;2022-08-21T03:22:52;1021.9;;;19.1;78.8
74429;BME280;62860;52.134;23.714;2022-08-21T03:27:52;1021.8;;;19.2;78.5
74429;BME280;62860;52.134;23.714;2022-08-21T03:33:13;1021.8;;;19.3;78.2
74429;BME280;62860;52.134;23.714;2022-08-21T03:38:20;1021.9;;;19.3;78.3
74429;BME280;62860;52.134;23.714;2022-08-21T03:43:22;1021.8;;;19.4;78.1
74429;BME280;62860;52.134;23.714;2022-08-21T03:48:02;1021.8;;;19.4;77.9
74429;BME280;62860;52.134;23.714;2022-08-21T03:53:35;1021.7;;;19.4;77.9
74429;BME280;62860;52.134;23.714;2022-08-21T03:58:25;1021.7;;;19.4;78.2
74429;BME280;62860;52.134;23.714;2022-08-21T04:03:08;1021.8;;;19.4;78.1
74429;BME280;62860;52.134;23.714;2022-08-21T04:08:01;1021.7;;;19.4;78.2
74429;BME280;62860;52.134;23.714;2022-08-21T04:12:52;1021.7;;;19.5;78.1
74429;BME280;62860;52.134;23.714;2022-08-21T04:18:32;1021.7;;;19.6;77.8
74429;BME280;62860;52.134;23.714;2022-08-21T04:23:20;1021.6;;;19.7;77.6
74429;BME280;62860;52.134;23.714;2022-08-21T04:28:32;1021.7;;;19.8;77.2
74429;BME280;62860;52.134;23.714;2022-08-21T04:33:26;1021.6;;;19.9;77
74429;BME280;62860;52.134;23.714;2022-08-21T04:38:22;1021.6;;;19.9;76.9
74429;BME280;62860;52.134;23.714;2022-08-21T04:43:10;1021.6;;;20;76.7
74429;BME280;62860;52.134;23.714;2022-08-21T04:48:19;1021.5;;;20;76.5
74429;BME280;62860;52.134;23.714;2022-08-21T04:52:52;1021.6;;;20;76.4
74429;BME280;62860;52.134;23.714;2022-08-21T04:58:13;1021.6;;;19.9;76.9
74429;BME280;62860;52.134;23.714;2022-08-21T05:03:04;1021.6;;;20;76.6
74429;BME280;62860;52.134;23.714;2022-08-21T05:08:32;1021.6;;;20;76.2
74429;BME280;62860;52.134;23.714;2022-08-21T05:13:34;1021.6;;;20;76.4
74429;BME280;62860;52.134;23.714;2022-08-21T05:18:16;1021.6;;;20;76.6
74429;BME280;62860;52.134;23.714;2022-08-21T05:22:52;1021.6;;;20.2;75.9
74429;BME280;62860;52.134;23.714;2022-08-21T05:28:34;1021.6;;;20.2;75.7
74429;BME280;62860;52.134;23.714;2022-08-21T05:33:32;1021.6;;;20.1;76.1
74429;BME280;62860;52.134;23.714;2022-08-21T05:37:52;1021.6;;;20.1;76.2
74429;BME280;62860;52.134;23.714;2022-08-21T05:43:06;1021.6;;;20.2;75.8
74429;BME280;62860;52.134;23.714;2022-08-21T05:48:24;1021.7;;;20.2;75.5
74429;BME280;62860;52.134;23.714;2022-08-21T05:52:52;1021.8;;;20.3;75.3
74429;BME280;62860;52.134;23.714;2022-08-21T05:57:52;1021.7;;;20.3;75.4
74429;BME280;62860;52.134;23.714;2022-08-21T06:03:14;1021.8;;;20.4;75.4
74429;BME280;62860;52.134;23.714;2022-08-21T06:08:22;1021.7;;;20.6;74.4
74429;BME280;62860;52.134;23.714;2022-08-21T06:13:22;1021.7;;;20.7;74
74429;BME280;62860;52.134;23.714;2022-08-21T06:18:16;1021.8;;;20.9;73.5
74429;BME280;62860;52.134;23.714;2022-08-21T06:23:34;1021.7;;;21;73
74429;BME280;62860;52.134;23.714;2022-08-21T06:28:24;1021.7;;;21.2;72.7
74429;BME280;62860;52.134;23.714;2022-08-21T06:33:10;1021.7;;;21.3;71.9
74429;BME280;62860;52.134;23.714;2022-08-21T06:38:04;1021.6;;;21.4;71.6
74429;BME280;62860;52.134;23.714;2022-08-21T06:43:14;1021.6;;;21.6;71.3
74429;BME280;62860;52.134;23.714;2022-08-21T06:48:32;1021.6;;;21.8;70.2
74429;BME280;62860;52.134;23.714;2022-08-21T06:53:32;1021.5;;;22;69.7
74429;BME280;62860;52.134;23.714;2022-08-21T06:58:20;1021.5;;;22.1;69.1
74429;BME280;62860;52.134;23.714;2022-08-21T07:03:27;1021.5;;;22.1;68.8
74429;BME280;62860;52.134;23.714;2022-08-21T07:08:25;1021.5;;;22.2;68.5
74429;BME280;62860;52.134;23.714;2022-08-21T07:13:10;1021.5;;;22.3;68.4
74429;BME280;62860;52.134;23.714;2022-08-21T07:18:12;1021.5;;;22.2;68.1
74429;BME280;62860;52.134;23.714;2022-08-21T07:23:23;1021.5;;;22.1;68.4
74429;BME280;62860;52.134;23.714;2022-08-21T07:28:06;1021.5;;;22.1;68.3
74429;BME280;62860;52.134;23.714;2022-08-21T07:32:58;1021.5;;;22;68.9
74429;BME280;62860;52.134;23.714;2022-08-21T07:38:14;1021.5;;;22.1;68.1
74429;BME280;62860;52.134;23.714;2022-08-21T07:43:34;1021.5;;;22.2;67.7
74429;BME280;62860;52.134;23.714;2022-08-21T07:48:24;1021.4;;;22.3;67.5
74429;BME280;62860;52.134;23.714;2022-08-21T07:53:18;1021.4;;;22.3;67.1
74429;BME280;62860;52.134;23.714;2022-08-21T07:58:16;1021.4;;;22.4;66.8
74429;BME280;62860;52.134;23.714;2022-08-21T08:03:32;1021.4;;;22.6;66.2
74429;BME280;62860;52.134;23.714;2022-08-21T08:08:34;1021.4;;;22.8;65.5
74429;BME280;62860;52.134;23.714;2022-08-21T08:13:18;1021.3;;;22.8;65.3
74429;BME280;62860;52.134;23.714;2022-08-21T08:17:52;1021.3;;;23.1;65
74429;BME280;62860;52.134;23.714;2022-08-21T08:23:06;1021.3;;;23.1;64.8
74429;BME280;62860;52.134;23.714;2022-08-21T08:28:18;1021.3;;;23;64.7
74429;BME280;62860;52.134;23.714;2022-08-21T08:33:12;1021.3;;;23;65.3
74429;BME280;62860;52.134;23.714;2022-08-21T08:38:14;1021.3;;;22.8;65.4
74429;BME280;62860;52.134;23.714;2022-08-21T08:43:22;1021.3;;;22.6;66.2
74429;BME280;62860;52.134;23.714;2022-08-21T08:49:40;1021.2;;;22.8;65.6
74429;BME280;62860;52.134;23.714;2022-08-21T08:53:25;1021.2;;;23;65.7
74429;BME280;62860;52.134;23.714;2022-08-21T08:58:29;1021.1;;;23.3;64.5
74429;BME280;62860;52.134;23.714;2022-08-21T09:03:34;1021.1;;;23.1;64.5
74429;BME280;62860;52.134;23.714;2022-08-21T09:12:56;1021.2;;;23;65
74429;BME280;62860;52.134;23.714;2022-08-21T09:19:00;1021.1;;;23.2;64.2
74429;BME280;62860;52.134;23.714;2022-08-21T09:23:54;1021.1;;;23.3;63.6
74429;BME280;62860;52.134;23.714;2022-08-21T09:28:20;1021;;;23.4;63.5
74429;BME280;62860;52.134;23.714;2022-08-21T09:33:02;1021;;;23.8;63.3
74429;BME280;62860;52.134;23.714;2022-08-21T09:38:28;1020.9;;;24.4;61.6
74429;BME280;62860;52.134;23.714;2022-08-21T09:43:16;1020.8;;;24.5;60.9
74429;BME280;62860;52.134;23.714;2022-08-21T09:48:14;1020.8;;;24.6;60.2
74429;BME280;62860;52.134;23.714;2022-08-21T09:53:24;1020.8;;;24.8;59.6
74429;BME280;62860;52.134;23.714;2022-08-21T09:58:04;1020.9;;;25;59.3
74429;BME280;62860;52.134;23.714;2022-08-21T10:03:15;1020.9;;;24.8;59.2
74429;BME280;62860;52.134;23.714;2022-08-21T10:07:52;1020.9;;;24.8;59.2
74429;BME280;62860;52.134;23.714;2022-08-21T10:13:47;1020.8;;;24.9;58.7
74429;BME280;62860;52.134;23.714;2022-08-21T10:18:26;1020.8;;;25.2;58.5
74429;BME280;62860;52.134;23.714;2022-08-21T10:23:36;1020.7;;;25.3;58
74429;BME280;62860;52.134;23.714;2022-08-21T10:28:07;1020.7;;;25.3;58
74429;BME280;62860;52.134;23.714;2022-08-21T10:33:33;1020.7;;;25.3;58.2
74429;BME280;62860;52.134;23.714;2022-08-21T10:38:38;1020.7;;;25.3;57.9
74429;BME280;62860;52.134;23.714;2022-08-21T10:44:07;1020.8;;;25;58
74429;BME280;62860;52.134;23.714;2022-08-21T10:48:16;1020.8;;;24.7;58.5
74429;BME280;62860;52.134;23.714;2022-08-21T10:53:03;1020.8;;;24.9;58.3
74429;BME280;62860;52.134;23.714;2022-08-21T10:58:39;1020.8;;;25.3;57.6
74429;BME280;62860;52.134;23.714;2022-08-21T11:03:03;1020.8;;;25.7;56.6
74429;BME280;62860;52.134;23.714;2022-08-21T11:08:15;1020.7;;;26.2;55.5
74429;BME280;62860;52.134;23.714;2022-08-21T11:13:45;1020.6;;;26.4;54.8
74429;BME280;62860;52.134;23.714;2022-08-21T11:18:26;1020.5;;;26.6;54.5
74429;BME280;62860;52.134;23.714;2022-08-21T11:28:32;1020.3;;;26;55.1
74429;BME280;62860;52.134;23.714;2022-08-21T11:38:14;1020.3;;;25.5;56
74429;BME280;62860;52.134;23.714;2022-08-21T11:43:14;1020.3;;;25.6;56
74429;BME280;62860;52.134;23.714;2022-08-21T11:48:31;1020.3;;;25.6;55.4
74429;BME280;62860;52.134;23.714;2022-08-21T11:53:51;1020.2;;;25.8;55.1
74429;BME280;62860;52.134;23.714;2022-08-21T11:58:36;1020.3;;;26.1;54.6
74429;BME280;62860;52.134;23.714;2022-08-21T12:03:31;1020.3;;;26.4;54
74429;BME280;62860;52.134;23.714;2022-08-21T12:08:41;1020.2;;;26.5;53.3
74429;BME280;62860;52.134;23.714;2022-08-21T12:13:23;1020.2;;;26.4;53.6
74429;BME280;62860;52.134;23.714;2022-08-21T12:18:28;1020.2;;;26.6;53
74429;BME280;62860;52.134;23.714;2022-08-21T12:23:18;1020.2;;;26.9;53.2
74429;BME280;62860;52.134;23.714;2022-08-21T12:28:08;1020.1;;;27.4;51.9
74429;BME280;62860;52.134;23.714;2022-08-21T12:32:55;1020.1;;;27.8;50.7
74429;BME280;62860;52.134;23.714;2022-08-21T12:38:06;1020.1;;;27.9;49.8
74429;BME280;62860;52.134;23.714;2022-08-21T12:43:35;1020;;;28.1;50.5
74429;BME280;62860;52.134;23.714;2022-08-21T12:48:39;1020;;;28.1;49.7
74429;BME280;62860;52.134;23.714;2022-08-21T12:53:49;1020;;;28.1;49.6
74429;BME280;62860;52.134;23.714;2022-08-21T12:58:27;1020;;;28.1;49.4
74429;BME280;62860;52.134;23.714;2022-08-21T13:03:30;1020.1;;;28.1;48.8
74429;BME280;62860;52.134;23.714;2022-08-21T13:08:35;1020.1;;;28;48.8
74429;BME280;62860;52.134;23.714;2022-08-21T13:13:22;1020.1;;;28.2;49.3
74429;BME280;62860;52.134;23.714;2022-08-21T13:17:52;1020.1;;;28.1;49.1
74429;BME280;62860;52.134;23.714;2022-08-21T13:23:18;1020.1;;;28.1;49.8
74429;BME280;62860;52.134;23.714;2022-08-21T13:28:16;1020.1;;;28.1;49.2
74429;BME280;62860;52.134;23.714;2022-08-21T13:33:10;1020.1;;;27.9;49.7
74429;BME280;62860;52.134;23.714;2022-08-21T13:38:12;1020.1;;;27.7;50
74429;BME280;62860;52.134;23.714;2022-08-21T13:43:25;1020.1;;;27.4;50.5
74429;BME280;62860;52.134;23.714;2022-08-21T13:48:23;1020.1;;;27.1;51.1
74429;BME280;62860;52.134;23.714;2022-08-21T13:53:22;1020.1;;;26.8;51.9
74429;BME280;62860;52.134;23.714;2022-08-21T13:58:43;1020.1;;;26.5;52.9
74429;BME280;62860;52.134;23.714;2022-08-21T14:03:10;1020.1;;;26.4;53.5
74429;BME280;62860;52.134;23.714;2022-08-21T14:07:57;1020;;;26.3;54.1
74429;BME280;62860;52.134;23.714;2022-08-21T14:13:45;1020;;;26.2;54.3
74429;BME280;62860;52.134;23.714;2022-08-21T14:17:52;1020;;;26.1;54.8
74429;BME280;62860;52.134;23.714;2022-08-21T14:23:32;1020;;;26.1;55
74429;BME280;62860;52.134;23.714;2022-08-21T14:28:19;1020;;;26.1;54.6
74429;BME280;62860;52.134;23.714;2022-08-21T14:33:31;1020;;;26;54.6
74429;BME280;62860;52.134;23.714;2022-08-21T14:38:27;1020;;;25.9;54.7
74429;BME280;62860;52.134;23.714;2022-08-21T14:43:22;1020.1;;;26;55.3
74429;BME280;62860;52.134;23.714;2022-08-21T14:48:10;1020;;;26.1;55.3
74429;BME280;62860;52.134;23.714;2022-08-21T14:53:20;1020.1;;;26.1;55.1
74429;BME280;62860;52.134;23.714;2022-08-21T14:58:04;1020.1;;;25.9;55.5
74429;BME280;62860;52.134;23.714;2022-08-21T15:03:04;1020;;;25.8;55.9
74429;BME280;62860;52.134;23.714;2022-08-21T15:08:10;1020.1;;;25.9;56.1
74429;BME280;62860;52.134;23.714;2022-08-21T15:13:34;1020;;;25.8;55.6
74429;BME280;62860;52.134;23.714;2022-08-21T15:18:36;1020;;;25.7;55.9
74429;BME280;62860;52.134;23.714;2022-08-21T15:23:26;1020;;;25.7;55.8
74429;BME280;62860;52.134;23.714;2022-08-21T15:28:06;1020;;;25.7;56.1
74429;BME280;62860;52.134;23.714;2022-08-21T15:33:12;1020;;;25.7;56.2
74429;BME280;62860;52.134;23.714;2022-08-21T15:38:36;1020;;;25.7;56.7
74429;BME280;62860;52.134;23.714;2022-08-21T15:43:41;1020.1;;;25.9;56.4
74429;BME280;62860;52.134;23.714;2022-08-21T15:48:14;1020.1;;;25.9;56.1
74429;BME280;62860;52.134;23.714;2022-08-21T15:53:00;1020.1;;;25.9;56
74429;BME280;62860;52.134;23.714;2022-08-21T15:58:04;1020.1;;;25.8;56.2
74429;BME280;62860;52.134;23.714;2022-08-21T16:03:13;1020.1;;;25.7;56.6
74429;BME280;62860;52.134;23.714;2022-08-21T16:08:04;1020.1;;;25.7;56.7
74429;BME280;62860;52.134;23.714;2022-08-21T16:13:16;1020.1;;;25.7;56.7
74429;BME280;62860;52.134;23.714;2022-08-21T16:18:26;1020.1;;;25.7;57
74429;BME280;62860;52.134;23.714;2022-08-21T16:23:36;1020.2;;;25.6;57.4
74429;BME280;62860;52.134;23.714;2022-08-21T16:28:19;1020.1;;;25.4;57.8
74429;BME280;62860;52.134;23.714;2022-08-21T16:33:35;1020.1;;;25.4;58.1
74429;BME280;62860;52.134;23.714;2022-08-21T16:38:33;1020.1;;;25.3;58.3
74429;BME280;62860;52.134;23.714;2022-08-21T16:43:06;1020.1;;;25.2;58.4
74429;BME280;62860;52.134;23.714;2022-08-21T16:47:52;1020;;;25.1;58.6
74429;BME280;62860;52.134;23.714;2022-08-21T16:53:26;1020;;;24.9;59
74429;BME280;62860;52.134;23.714;2022-08-21T16:58:35;1020;;;24.8;59.3
74429;BME280;62860;52.134;23.714;2022-08-21T17:03:16;1020;;;24.8;59.4
74429;BME280;62860;52.134;23.714;2022-08-21T17:08:24;1020;;;24.7;59.7
74429;BME280;62860;52.134;23.714;2022-08-21T17:13:26;1020.1;;;24.5;60.2
74429;BME280;62860;52.134;23.714;2022-08-21T17:18:28;1020.1;;;24.4;60.9
74429;BME280;62860;52.134;23.714;2022-08-21T17:23:05;1020;;;24.3;61.2
74429;BME280;62860;52.134;23.714;2022-08-21T17:27:58;1020.1;;;24.2;61.6
74429;BME280;62860;52.134;23.714;2022-08-21T17:32:58;1020.2;;;24.1;61.9
74429;BME280;62860;52.134;23.714;2022-08-21T17:37:58;1020.2;;;24;62.5
74429;BME280;62860;52.134;23.714;2022-08-21T17:43:06;1020.2;;;23.9;62.9
74429;BME280;62860;52.134;23.714;2022-08-21T17:48:34;1020.3;;;23.9;63
74429;BME280;62860;52.134;23.714;2022-08-21T17:53:24;1020.4;;;23.8;63.2
74429;BME280;62860;52.134;23.714;2022-08-21T17:58:16;1020.4;;;23.8;64
74429;BME280;62860;52.134;23.714;2022-08-21T18:03:22;1020.5;;;23.6;64.5
74429;BME280;62860;52.134;23.714;2022-08-21T18:08:34;1020.5;;;23.6;64.4
74429;BME280;62860;52.134;23.714;2022-08-21T18:13:36;1020.5;;;23.6;64.1
74429;BME280;62860;52.134;23.714;2022-08-21T18:18:10;1020.5;;;23.6;64.3
74429;BME280;62860;52.134;23.714;2022-08-21T18:23:06;1020.5;;;23.4;64.9
74429;BME280;62860;52.134;23.714;2022-08-21T18:28:05;1020.6;;;23.3;65.4
74429;BME280;62860;52.134;23.714;2022-08-21T18:33:12;1020.5;;;23.2;65.8
74429;BME280;62860;52.134;23.714;2022-08-21T18:38:14;1020.6;;;23.1;66.3
74429;BME280;62860;52.134;23.714;2022-08-21T18:43:14;1020.6;;;23;66.5
74429;BME280;62860;52.134;23.714;2022-08-21T18:48:24;1020.6;;;22.9;66.9
74429;BME280;62860;52.134;23.714;2022-08-21T18:53:34;1020.6;;;22.8;67.3
74429;BME280;62860;52.134;23.714;2022-08-21T18:58:20;1020.6;;;22.7;67.5
74429;BME280;62860;52.134;23.714;2022-08-21T19:03:36;1020.6;;;22.5;68.3
74429;BME280;62860;52.134;23.714;2022-08-21T19:08:34;1020.6;;;22.4;68.6
74429;BME280;62860;52.134;23.714;2022-08-21T19:13:04;1020.6;;;22.3;69
74429;BME280;62860;52.134;23.714;2022-08-21T19:18:05;1020.7;;;22.2;69.3
74429;BME280;62860;52.134;23.714;2022-08-21T19:23:27;1020.7;;;22.1;69.6
74429;BME280;62860;52.134;23.714;2022-08-21T19:28:39;1020.7;;;22;69.9
74429;BME280;62860;52.134;23.714;2022-08-21T19:33:12;1020.8;;;21.9;70.4
74429;BME280;62860;52.134;23.714;2022-08-21T19:38:36;1020.8;;;21.8;70.8
74429;BME280;62860;52.134;23.714;2022-08-21T19:43:24;1020.8;;;21.7;71.3
74429;BME280;62860;52.134;23.714;2022-08-21T19:48:27;1020.8;;;21.6;71.7
74429;BME280;62860;52.134;23.714;2022-08-21T19:52:58;1020.8;;;21.5;71.9
74429;BME280;62860;52.134;23.714;2022-08-21T19:58:35;1020.8;;;21.5;72.1
74429;BME280;62860;52.134;23.714;2022-08-21T20:03:22;1020.8;;;21.4;72.1
74429;BME280;62860;52.134;23.714;2022-08-21T20:08:20;1020.8;;;21.3;72.3
74429;BME280;62860;52.134;23.714;2022-08-21T20:12:52;1020.8;;;21.2;72.7
74429;BME280;62860;52.134;23.714;2022-08-21T20:18:28;1020.8;;;21.2;72.8
74429;BME280;62860;52.134;23.714;2022-08-21T20:23:36;1020.8;;;21.2;72.7
74429;BME280;62860;52.134;23.714;2022-08-21T20:28:16;1020.8;;;21.3;72.9
74429;BME280;62860;52.134;23.714;2022-08-21T20:33:02;1020.8;;;21.4;73.3
74429;BME280;62860;52.134;23.714;2022-08-21T20:38:36;1020.8;;;21.4;73.2
74429;BME280;62860;52.134;23.714;2022-08-21T20:43:35;1020.8;;;21.5;72.6
74429;BME280;62860;52.134;23.714;2022-08-21T20:48:30;1020.8;;;21.5;72.1
74429;BME280;62860;52.134;23.714;2022-08-21T20:52:59;1020.8;;;21.5;72.4
74429;BME280;62860;52.134;23.714;2022-08-21T20:58:05;1020.7;;;21.5;72.6
74429;BME280;62860;52.134;23.714;2022-08-21T21:03:16;1020.8;;;21.5;72.1
74429;BME280;62860;52.134;23.714;2022-08-21T21:08:04;1020.8;;;21.5;72
74429;BME280;62860;52.134;23.714;2022-08-21T21:13:17;1020.8;;;21.6;72.3
74429;BME280;62860;52.134;23.714;2022-08-21T21:18:17;1020.9;;;21.6;72.1
74429;BME280;62860;52.134;23.714;2022-08-21T21:23:30;1020.8;;;21.7;71.8
74429;BME280;62860;52.134;23.714;2022-08-21T21:28:05;1020.8;;;21.7;71.6
74429;BME280;62860;52.134;23.714;2022-08-21T21:33:32;1020.8;;;21.8;71.5
74429;BME280;62860;52.134;23.714;2022-08-21T21:38:30;1020.8;;;21.8;71.4
74429;BME280;62860;52.134;23.714;2022-08-21T21:43:12;1020.9;;;21.8;71.5
74429;BME280;62860;52.134;23.714;2022-08-21T21:48:23;1020.8;;;21.7;71.5
74429;BME280;62860;52.134;23.714;2022-08-21T21:58:55;1020.9;;;21.7;71.6
74429;BME280;62860;52.134;23.714;2022-08-21T22:03:33;1020.9;;;21.7;71.5
74429;BME280;62860;52.134;23.714;2022-08-21T22:08:38;1020.8;;;21.7;71.4
74429;BME280;62860;52.134;23.714;2022-08-21T22:14:40;1020.9;;;21.7;71.5
74429;BME280;62860;52.134;23.714;2022-08-21T22:18:26;1020.8;;;21.7;71.5
74429;BME280;62860;52.134;23.714;2022-08-21T22:23:16;1020.8;;;21.6;71.5
74429;BME280;62860;52.134;23.714;2022-08-21T22:28:20;1020.8;;;21.6;71.5
74429;BME280;62860;52.134;23.714;2022-08-21T22:32:52;1020.8;;;21.7;71.5
74429;BME280;62860;52.134;23.714;2022-08-21T22:38:15;1020.7;;;21.7;71.3
74429;BME280;62860;52.134;23.714;2022-08-21T22:42:58;1020.7;;;21.7;71.3
74429;BME280;62860;52.134;23.714;2022-08-21T22:48:31;1020.7;;;21.7;71.4
74429;BME280;62860;52.134;23.714;2022-08-21T22:53:31;1020.7;;;21.7;72
74429;BME280;62860;52.134;23.714;2022-08-21T22:58:18;1020.8;;;21.7;72.4
74429;BME280;62860;52.134;23.714;2022-08-21T23:03:22;1020.8;;;21.7;71.9
74429;BME280;62860;52.134;23.714;2022-08-21T23:08:30;1020.8;;;21.8;71.6
74429;BME280;62860;52.134;23.714;2022-08-21T23:13:37;1020.7;;;21.8;71.6
74429;BME280;62860;52.134;23.714;2022-08-21T23:18:30;1020.7;;;21.8;71.7
74429;BME280;62860;52.134;23.714;2022-08-21T23:23:09;1020.7;;;21.7;71.9
74429;BME280;62860;52.134;23.714;2022-08-21T23:33:07;1020.7;;;21.8;71.8
74429;BME280;62860;52.134;23.714;2022-08-21T23:38:14;1020.7;;;21.8;71.9
74429;BME280;62860;52.134;23.714;2022-08-21T23:43:01;1020.7;;;21.7;72.2
74429;BME280;62860;52.134;23.714;2022-08-21T23:53:30;1020.7;;;21.5;72.8
74429;BME280;62860;52.134;23.714;2022-08-21T23:58:36;1020.7;;;21.4;73.2
